createdAt,value
2023-01-29T00:00:09.219Z,115.76
2023-01-29T00:01:10.163Z,116.48
2023-01-29T00:02:09.281Z,116.16
2023-01-29T00:03:09.269Z,117.13
2023-01-29T00:04:09.185Z,116.08
2023-01-29T00:05:25.915Z,116.08
2023-01-29T00:06:11.577Z,116.81
2023-01-29T00:07:09.101Z,116.24
2023-01-29T00:08:09.147Z,115.28
2023-01-29T00:09:09.177Z,116.24
2023-01-29T00:10:09.177Z,117.21
2023-01-29T00:11:10.043Z,116.89
2023-01-29T00:12:09.110Z,116.97
2023-01-29T00:13:09.063Z,116.97
2023-01-29T00:14:09.029Z,116.72
2023-01-29T00:15:09.060Z,117.21
2023-01-29T00:16:09.960Z,117.21
2023-01-29T00:17:09.026Z,116.72
2023-01-29T00:18:09.015Z,116.81
2023-01-29T00:19:08.997Z,117.30
2023-01-29T00:20:08.939Z,117.21
2023-01-29T00:21:08.957Z,117.54
2023-01-29T00:22:09.909Z,117.46
2023-01-29T00:23:08.922Z,117.54
2023-01-29T00:24:09.047Z,116.56
2023-01-29T00:25:08.903Z,117.71
2023-01-29T00:26:08.925Z,116.97
2023-01-29T00:27:08.925Z,116.72
2023-01-29T00:28:09.786Z,117.46
2023-01-29T00:29:08.863Z,117.30
2023-01-29T00:30:08.849Z,117.38
2023-01-29T00:31:08.936Z,116.64
2023-01-29T00:32:09.065Z,117.38
2023-01-29T00:33:08.914Z,116.48
2023-01-29T00:34:09.825Z,116.72
2023-01-29T00:35:08.775Z,116.89
2023-01-29T00:36:08.782Z,117.87
2023-01-29T00:37:08.733Z,116.97
2023-01-29T00:38:08.810Z,117.54
2023-01-29T00:39:08.719Z,116.32
2023-01-29T00:40:09.639Z,118.54
2023-01-29T00:41:08.714Z,117.21
2023-01-29T00:42:08.817Z,117.87
2023-01-29T00:43:08.682Z,117.21
2023-01-29T00:44:08.739Z,117.13
2023-01-29T00:45:08.647Z,117.63
2023-01-29T00:46:09.560Z,117.46
2023-01-29T00:47:08.601Z,117.38
2023-01-29T00:48:08.606Z,118.04
2023-01-29T00:49:08.780Z,118.04
2023-01-29T00:50:08.611Z,117.05
2023-01-29T00:51:15.025Z,117.71
2023-01-29T00:52:08.689Z,116.89
2023-01-29T00:53:08.591Z,117.54
2023-01-29T00:54:08.518Z,116.56
2023-01-29T00:55:08.568Z,116.89
2023-01-29T00:56:09.457Z,116.89
2023-01-29T00:57:08.513Z,117.79
2023-01-29T00:58:08.466Z,117.79
2023-01-29T00:59:08.469Z,117.13
2023-01-29T01:00:08.498Z,117.21
2023-01-29T01:01:08.476Z,117.71
2023-01-29T01:02:09.424Z,117.21
2023-01-29T01:03:08.506Z,117.54
2023-01-29T01:04:08.483Z,117.71
2023-01-29T01:05:08.398Z,117.30
2023-01-29T01:06:08.402Z,118.04
2023-01-29T01:07:09.294Z,117.46
2023-01-29T01:08:08.335Z,118.29
2023-01-29T01:09:08.386Z,117.63
2023-01-29T01:10:08.343Z,118.71
2023-01-29T01:11:08.329Z,117.96
2023-01-29T01:12:08.317Z,118.21
2023-01-29T01:13:09.204Z,118.63
2023-01-29T01:14:08.293Z,117.71
2023-01-29T01:15:08.285Z,117.54
2023-01-29T01:16:08.288Z,117.71
2023-01-29T01:17:08.326Z,118.54
2023-01-29T01:18:08.237Z,119.22
2023-01-29T01:19:09.129Z,118.12
2023-01-29T01:20:08.177Z,118.29
2023-01-29T01:21:08.173Z,118.63
2023-01-29T01:22:08.174Z,119.39
2023-01-29T01:23:08.151Z,119.99
2023-01-29T01:24:08.212Z,119.30
2023-01-29T01:25:09.051Z,119.22
2023-01-29T01:26:08.146Z,119.81
2023-01-29T01:27:08.133Z,119.90
2023-01-29T01:28:08.112Z,119.73
2023-01-29T01:29:08.068Z,119.81
2023-01-29T01:30:09.081Z,119.99
2023-01-29T01:31:08.378Z,120.50
2023-01-29T01:32:08.122Z,120.59
2023-01-29T01:33:08.039Z,120.59
2023-01-29T01:34:08.053Z,120.59
2023-01-29T01:35:08.001Z,120.24
2023-01-29T01:36:09.022Z,120.68
2023-01-29T01:37:07.999Z,120.33
2023-01-29T01:38:07.982Z,120.76
2023-01-29T01:39:07.957Z,120.50
2023-01-29T01:40:07.999Z,119.99
2023-01-29T01:41:07.919Z,120.68
2023-01-29T01:42:08.851Z,120.07
2023-01-29T01:43:07.896Z,120.07
2023-01-29T01:44:07.913Z,120.85
2023-01-29T01:45:08.068Z,120.76
2023-01-29T07:22:02.081Z,51.06
2023-01-29T07:23:02.104Z,47.47
2023-01-29T07:24:02.055Z,49.14
2023-01-29T07:25:02.043Z,52.30
2023-01-29T07:26:02.038Z,55.78
2023-01-29T07:27:02.999Z,59.64
2023-01-29T07:28:02.025Z,63.19
2023-01-29T07:29:01.979Z,66.56
2023-01-29T07:30:02.015Z,69.54
2023-01-29T07:31:02.002Z,72.31
2023-01-29T07:32:02.023Z,74.76
2023-01-29T07:33:02.915Z,77.10
2023-01-29T07:34:01.941Z,79.74
2023-01-29T07:35:01.920Z,81.13
2023-01-29T07:36:01.923Z,83.31
2023-01-29T07:37:01.879Z,84.83
2023-01-29T07:38:02.798Z,86.23
2023-01-29T07:39:01.887Z,87.85
2023-01-29T07:40:01.850Z,88.88
2023-01-29T07:41:03.156Z,89.83
2023-01-29T07:42:01.838Z,91.60
2023-01-29T07:43:02.738Z,92.41
2023-01-29T07:44:01.821Z,93.23
2023-01-29T07:45:01.803Z,94.07
2023-01-29T07:46:01.880Z,95.14
2023-01-29T07:47:01.785Z,95.57
2023-01-29T07:48:02.690Z,93.94
2023-01-29T07:49:01.751Z,94.69
2023-01-29T07:50:01.769Z,95.55
2023-01-29T07:51:01.743Z,96.10
2023-01-29T07:52:01.710Z,97.33
2023-01-29T07:53:02.617Z,96.93
2023-01-29T07:54:01.665Z,98.24
2023-01-29T07:55:01.678Z,98.47
2023-01-29T07:56:01.660Z,98.24
2023-01-29T07:57:01.635Z,98.82
2023-01-29T07:58:01.660Z,100.24
2023-01-29T07:59:02.535Z,100.00
2023-01-29T08:00:01.644Z,100.60
2023-01-29T08:01:01.620Z,100.66
2023-01-29T08:02:01.635Z,101.45
2023-01-29T08:03:01.586Z,101.64
2023-01-29T08:04:02.544Z,101.39
2023-01-29T08:05:01.564Z,102.51
2023-01-29T08:06:01.511Z,102.07
2023-01-29T08:07:01.555Z,102.76
2023-01-29T08:08:07.049Z,103.59
2023-01-29T08:09:03.915Z,103.27
2023-01-29T08:10:01.468Z,103.84
2023-01-29T08:11:01.451Z,104.30
2023-01-29T08:12:01.434Z,104.82
2023-01-29T08:13:01.479Z,104.43
2023-01-29T08:14:02.401Z,105.01
2023-01-29T08:15:01.421Z,104.95
2023-01-29T08:16:01.388Z,106.08
2023-01-29T08:17:01.394Z,105.68
2023-01-29T08:18:01.411Z,105.48
2023-01-29T08:19:01.386Z,106.28
2023-01-29T08:20:02.287Z,106.28
2023-01-29T08:21:01.389Z,106.62
2023-01-29T08:22:01.339Z,106.82
2023-01-29T08:23:01.321Z,107.17
2023-01-29T08:25:08.257Z,107.44
2023-01-29T08:26:02.772Z,106.48
2023-01-29T08:27:01.273Z,107.10
2023-01-29T08:28:01.239Z,107.58
2023-01-29T08:29:01.259Z,107.99
2023-01-29T08:30:01.232Z,108.13
2023-01-29T08:31:02.176Z,107.44
2023-01-29T08:32:01.241Z,107.51
2023-01-29T08:33:01.191Z,108.41
2023-01-29T08:34:01.178Z,108.41
2023-01-29T08:35:01.168Z,108.48
2023-01-29T08:36:02.156Z,108.84
2023-01-29T08:37:01.144Z,108.41
2023-01-29T08:38:01.144Z,108.62
2023-01-29T08:39:01.178Z,108.91
2023-01-29T08:40:01.125Z,109.55
2023-01-29T08:41:02.027Z,109.33
2023-01-29T08:42:01.064Z,109.48
2023-01-29T08:43:02.506Z,109.62
2023-01-29T08:44:01.071Z,110.05
2023-01-29T08:45:01.055Z,109.91
2023-01-29T08:46:01.987Z,110.27
2023-01-29T08:47:01.026Z,110.20
2023-01-29T08:48:01.014Z,109.91
2023-01-29T08:49:00.975Z,110.71
2023-01-29T08:50:01.044Z,109.98
2023-01-29T08:51:00.967Z,110.78
2023-01-29T08:52:03.199Z,110.85
2023-01-29T08:53:00.933Z,110.27
2023-01-29T08:54:00.954Z,110.05
2023-01-29T08:55:05.910Z,181.67
2023-01-29T08:56:05.156Z,150.90
2023-01-29T08:57:06.118Z,136.73
2023-01-29T08:58:05.151Z,128.65
2023-01-29T08:59:05.110Z,123.43
2023-01-29T09:00:05.114Z,119.73
2023-01-29T09:01:05.087Z,118.12
2023-01-29T09:02:05.124Z,117.38
2023-01-29T09:03:06.007Z,115.92
2023-01-29T09:04:05.058Z,115.36
2023-01-29T09:05:05.051Z,114.02
2023-01-29T09:06:05.039Z,114.65
2023-01-29T09:07:05.048Z,113.79
2023-01-29T09:08:05.949Z,114.33
2023-01-29T09:09:04.991Z,113.64
2023-01-29T09:10:04.974Z,113.10
2023-01-29T09:11:05.777Z,113.87
2023-01-29T09:12:04.955Z,113.25
2023-01-29T09:13:05.873Z,113.56
2023-01-29T09:14:04.935Z,113.25
2023-01-29T09:15:04.927Z,113.25
2023-01-29T09:16:04.909Z,113.40
2023-01-29T09:17:04.915Z,113.33
2023-01-29T09:18:05.828Z,113.02
2023-01-29T09:19:04.852Z,113.10
2023-01-29T09:20:04.926Z,113.10
2023-01-29T09:21:04.849Z,113.48
2023-01-29T09:22:04.834Z,113.02
2023-01-29T09:23:04.826Z,113.56
2023-01-29T09:24:04.790Z,112.87
2023-01-29T09:25:04.822Z,112.95
2023-01-29T09:26:04.798Z,112.95
2023-01-29T09:27:04.760Z,112.57
2023-01-29T09:28:04.765Z,112.49
2023-01-29T09:29:05.680Z,113.25
2023-01-29T09:30:04.738Z,113.48
2023-01-29T09:31:04.772Z,113.02
2023-01-29T09:32:04.699Z,112.57
2023-01-29T09:33:04.671Z,113.10
2023-01-29T09:34:05.616Z,113.02
2023-01-29T09:35:04.748Z,112.42
2023-01-29T09:36:04.639Z,112.95
2023-01-29T09:37:04.645Z,112.72
2023-01-29T09:38:04.646Z,113.40
2023-01-29T09:39:05.538Z,113.10
2023-01-29T09:40:04.601Z,113.10
2023-01-29T09:41:04.597Z,113.33
2023-01-29T09:42:04.584Z,112.49
2023-01-29T09:43:04.558Z,112.57
2023-01-29T09:44:05.483Z,112.34
2023-01-29T09:45:04.557Z,112.34
2023-01-29T09:46:04.547Z,112.57
2023-01-29T09:47:04.521Z,112.79
2023-01-29T09:48:04.485Z,112.04
2023-01-29T09:49:05.430Z,112.49
2023-01-29T09:50:04.566Z,112.64
2023-01-29T09:51:04.455Z,112.42
2023-01-29T09:52:04.450Z,112.64
2023-01-29T09:53:04.449Z,112.11
2023-01-29T09:54:05.360Z,112.04
2023-01-29T09:55:04.417Z,111.82
2023-01-29T09:56:04.426Z,111.52
2023-01-29T09:57:04.387Z,111.22
2023-01-29T09:58:04.355Z,112.79
2023-01-29T09:59:04.368Z,109.98
2023-01-29T10:00:05.287Z,113.18
2023-01-29T10:01:04.386Z,111.89
2023-01-29T10:02:04.452Z,111.52
2023-01-29T10:03:04.304Z,109.12
2023-01-29T10:04:04.415Z,109.98
2023-01-29T10:05:05.214Z,109.98
2023-01-29T10:06:04.296Z,109.55
2023-01-29T10:07:04.257Z,109.98
2023-01-29T10:08:04.272Z,109.12
2023-01-29T10:09:04.246Z,109.05
2023-01-29T10:10:04.232Z,108.27
2023-01-29T10:11:05.151Z,108.91
2023-01-29T10:12:04.197Z,109.26
2023-01-29T10:13:04.205Z,109.40
2023-01-29T10:14:04.174Z,107.58
2023-01-29T10:15:04.198Z,107.51
2023-01-29T10:16:05.097Z,107.58
2023-01-29T10:17:04.929Z,108.27
2023-01-29T10:18:04.155Z,107.99
2023-01-29T10:19:04.361Z,108.91
2023-01-29T10:20:04.111Z,109.26
2023-01-29T10:21:05.039Z,109.69
2023-01-29T10:22:04.095Z,108.84
2023-01-29T10:23:04.089Z,109.05
2023-01-29T10:24:04.057Z,108.62
2023-01-29T10:25:04.413Z,107.72
2023-01-29T10:26:04.026Z,107.23
2023-01-29T10:27:04.957Z,106.28
2023-01-29T10:28:03.996Z,105.28
2023-01-29T10:29:03.975Z,105.21
2023-01-29T10:30:03.953Z,105.08
2023-01-29T10:31:04.099Z,104.88
2023-01-29T10:32:04.091Z,104.88
2023-01-29T10:33:04.852Z,104.56
2023-01-29T10:34:03.989Z,103.84
2023-01-29T10:35:03.922Z,103.20
2023-01-29T10:36:03.896Z,103.20
2023-01-29T10:37:03.894Z,103.71
2023-01-29T10:38:03.857Z,102.82
2023-01-29T10:39:04.784Z,102.82
2023-01-29T10:40:03.829Z,102.70
2023-01-29T10:41:03.855Z,103.08
2023-01-29T10:42:03.823Z,102.89
2023-01-29T10:43:03.798Z,102.13
2023-01-29T10:44:04.710Z,103.08
2023-01-29T10:45:03.785Z,102.01
2023-01-29T10:46:03.770Z,101.89
2023-01-29T10:47:03.800Z,101.03
2023-01-29T10:48:03.728Z,101.82
2023-01-29T10:49:03.747Z,101.27
2023-01-29T10:50:04.638Z,100.96
2023-01-29T10:51:03.700Z,100.18
2023-01-29T10:52:03.702Z,100.54
2023-01-29T10:53:03.698Z,100.96
2023-01-29T10:54:03.689Z,100.54
2023-01-29T10:55:04.596Z,100.24
2023-01-29T10:56:10.759Z,100.54
2023-01-29T10:57:05.120Z,100.12
2023-01-29T10:58:03.615Z,99.88
2023-01-29T10:59:03.599Z,100.18
2023-01-29T11:00:03.576Z,99.70
2023-01-29T11:01:04.520Z,100.36
2023-01-29T11:02:03.555Z,99.70
2023-01-29T11:03:04.266Z,99.35
2023-01-29T11:04:03.534Z,99.58
2023-01-29T11:05:03.525Z,99.29
2023-01-29T11:06:04.457Z,99.05
2023-01-29T11:07:18.382Z,100.00
2023-01-29T11:08:03.465Z,99.29
2023-01-29T11:09:03.469Z,99.82
2023-01-29T11:10:03.469Z,99.52
2023-01-29T11:11:04.378Z,99.41
2023-01-29T11:12:03.417Z,99.00
2023-01-29T11:13:03.413Z,98.82
2023-01-29T11:14:03.417Z,99.58
2023-01-29T11:15:03.407Z,98.70
2023-01-29T11:16:03.397Z,99.41
2023-01-29T11:17:04.332Z,99.11
2023-01-29T11:18:03.366Z,99.05
2023-01-29T11:19:03.323Z,99.29
2023-01-29T11:20:03.536Z,98.36
2023-01-29T11:21:03.526Z,98.82
2023-01-29T11:22:04.313Z,98.82
2023-01-29T11:23:03.284Z,98.70
2023-01-29T11:24:03.276Z,98.47
2023-01-29T11:25:03.296Z,98.59
2023-01-29T11:26:03.346Z,98.47
2023-01-29T11:27:04.226Z,98.41
2023-01-29T11:28:03.264Z,98.64
2023-01-29T11:29:03.234Z,98.88
2023-01-29T11:30:03.222Z,98.47
2023-01-29T11:31:03.332Z,99.17
2023-01-29T11:32:03.172Z,99.17
2023-01-29T11:33:04.149Z,99.11
2023-01-29T11:34:03.158Z,98.82
2023-01-29T11:35:03.160Z,98.94
2023-01-29T11:36:03.115Z,99.46
2023-01-29T11:37:03.123Z,99.64
2023-01-29T11:38:04.145Z,98.70
2023-01-29T11:39:03.081Z,99.23
2023-01-29T11:40:03.309Z,99.29
2023-01-29T11:41:03.061Z,98.82
2023-01-29T11:42:03.141Z,99.05
2023-01-29T11:43:03.043Z,98.82
2023-01-29T11:44:03.048Z,98.82
2023-01-29T11:45:03.026Z,98.70
2023-01-29T11:46:03.072Z,98.70
2023-01-29T11:47:02.999Z,98.47
2023-01-29T11:48:03.009Z,99.00
2023-01-29T11:49:14.294Z,98.59
2023-01-29T11:50:04.456Z,98.88
2023-01-29T11:51:04.875Z,99.46
2023-01-29T11:52:02.944Z,99.00
2023-01-29T11:53:02.926Z,99.05
2023-01-29T11:54:02.912Z,98.88
2023-01-29T11:55:03.810Z,98.70
2023-01-29T11:56:02.885Z,99.17
2023-01-29T11:57:02.871Z,98.82
2023-01-29T11:58:02.896Z,99.23
2023-01-29T11:59:02.914Z,98.88
2023-01-29T12:00:02.818Z,99.05
2023-01-29T12:01:03.728Z,98.88
2023-01-29T12:02:02.826Z,99.05
2023-01-29T12:03:02.792Z,98.88
2023-01-29T12:04:02.880Z,98.82
2023-01-29T12:05:02.751Z,98.88
2023-01-29T12:06:03.721Z,98.94
2023-01-29T12:07:02.779Z,98.47
2023-01-29T12:08:02.728Z,98.94
2023-01-29T12:09:02.746Z,98.47
2023-01-29T12:10:02.731Z,98.18
2023-01-29T12:11:03.650Z,98.07
2023-01-29T12:12:02.705Z,99.00
2023-01-29T12:13:02.673Z,98.59
2023-01-29T12:14:02.648Z,98.36
2023-01-29T12:15:02.656Z,98.76
2023-01-29T12:16:02.673Z,98.94
2023-01-29T12:17:03.679Z,98.36
2023-01-29T12:18:03.345Z,98.07
2023-01-29T12:19:02.631Z,98.36
2023-01-29T12:20:02.625Z,98.59
2023-01-29T12:21:02.649Z,98.24
2023-01-29T12:22:04.094Z,99.05
2023-01-29T12:23:02.546Z,98.53
2023-01-29T12:24:02.543Z,98.70
2023-01-29T12:25:02.583Z,99.52
2023-01-29T12:26:02.640Z,98.88
2023-01-29T12:27:02.529Z,99.35
2023-01-29T12:28:03.412Z,99.00
2023-01-29T12:29:02.480Z,100.06
2023-01-29T12:30:02.436Z,99.58
2023-01-29T12:31:02.500Z,100.12
2023-01-29T12:32:02.417Z,99.94
2023-01-29T12:33:02.461Z,100.06
2023-01-29T12:34:03.320Z,100.00
2023-01-29T12:35:02.738Z,100.18
2023-01-29T12:36:02.384Z,100.30
2023-01-29T12:37:02.369Z,100.90
2023-01-29T12:38:02.365Z,100.66
2023-01-29T12:39:02.365Z,101.51
2023-01-29T12:40:03.318Z,101.21
2023-01-29T12:41:02.316Z,101.27
2023-01-29T12:42:02.283Z,101.58
2023-01-29T12:43:02.285Z,101.82
2023-01-29T12:44:02.306Z,102.07
2023-01-29T12:45:03.186Z,101.95
2023-01-29T12:46:02.275Z,102.95
2023-01-29T12:47:02.324Z,103.27
2023-01-29T12:48:02.226Z,103.46
2023-01-29T12:49:02.206Z,103.33
2023-01-29T12:50:02.187Z,103.84
2023-01-29T12:51:03.103Z,104.23
2023-01-29T12:52:02.174Z,104.30
2023-01-29T12:53:02.155Z,105.01
2023-01-29T12:54:02.155Z,105.28
2023-01-29T12:55:02.150Z,105.54
2023-01-29T12:56:03.045Z,105.41
2023-01-29T12:57:02.122Z,105.54
2023-01-29T12:58:02.093Z,105.61
2023-01-29T12:59:02.074Z,105.41
2023-01-29T13:00:02.167Z,105.68
2023-01-29T13:01:02.100Z,106.35
2023-01-29T13:02:03.923Z,106.42
2023-01-29T13:03:02.009Z,106.82
2023-01-29T13:04:02.051Z,107.30
2023-01-29T13:05:02.302Z,106.96
2023-01-29T13:06:02.155Z,107.58
2023-01-29T13:07:03.106Z,107.79
2023-01-29T13:08:04.023Z,108.20
2023-01-29T13:09:03.637Z,108.34
2023-01-29T13:10:02.021Z,107.93
2023-01-29T13:11:03.836Z,108.27
2023-01-29T13:12:03.092Z,107.99
2023-01-29T13:13:03.101Z,108.55
2023-01-29T13:14:02.171Z,108.34
2023-01-29T13:15:05.734Z,108.13
2023-01-29T13:16:02.981Z,108.62
2023-01-29T13:17:02.041Z,108.84
2023-01-29T13:18:03.040Z,108.48
2023-01-29T13:19:03.890Z,108.77
2023-01-29T13:20:01.943Z,107.72
2023-01-29T13:21:01.868Z,108.27
2023-01-29T13:22:01.824Z,107.86
2023-01-29T13:23:02.479Z,108.48
2023-01-29T13:24:02.917Z,108.41
2023-01-29T13:25:05.390Z,108.84
2023-01-29T13:26:05.544Z,108.84
2023-01-29T13:27:01.993Z,108.55
2023-01-29T13:28:01.946Z,108.41
2023-01-29T13:29:04.659Z,108.84
2023-01-29T13:30:01.762Z,108.69
2023-01-29T13:31:01.808Z,108.55
2023-01-29T13:32:01.746Z,108.62
2023-01-29T13:33:01.803Z,109.26
2023-01-29T13:34:01.657Z,109.12
2023-01-29T13:35:02.548Z,108.48
2023-01-29T13:36:01.620Z,109.69
2023-01-29T13:37:02.430Z,108.34
2023-01-29T13:38:01.596Z,108.77
2023-01-29T13:39:01.596Z,108.48
2023-01-29T13:40:01.604Z,109.12
2023-01-29T13:41:03.411Z,108.55
2023-01-29T13:42:01.530Z,109.62
2023-01-29T13:43:02.486Z,109.84
2023-01-29T13:44:01.488Z,109.76
2023-01-29T13:45:01.527Z,110.20
2023-01-29T13:46:02.472Z,110.05
2023-01-29T13:47:01.465Z,110.49
2023-01-29T13:48:01.435Z,110.12
2023-01-29T13:49:02.398Z,110.85
2023-01-29T13:50:01.448Z,110.42
2023-01-29T13:51:02.340Z,110.27
2023-01-29T13:52:02.367Z,110.93
2023-01-29T13:53:01.401Z,110.56
2023-01-29T13:54:01.414Z,111.00
2023-01-29T13:55:02.325Z,110.85
2023-01-29T13:56:01.331Z,110.56
2023-01-29T13:57:02.252Z,111.37
2023-01-29T13:58:01.356Z,111.52
2023-01-29T13:59:01.338Z,110.71
2023-01-29T14:00:02.281Z,111.22
2023-01-29T14:01:01.671Z,111.52
2023-01-29T14:02:02.212Z,111.96
2023-01-29T14:03:01.289Z,109.84
2023-01-29T14:04:05.358Z,110.49
2023-01-29T14:05:01.270Z,112.04
2023-01-29T14:06:01.242Z,111.59
2023-01-29T14:07:03.075Z,110.27
2023-01-29T14:08:01.215Z,111.82
2023-01-29T14:09:01.173Z,112.64
2023-01-29T14:10:01.165Z,110.71
2023-01-29T14:11:01.181Z,112.19
2023-01-29T14:12:02.065Z,111.82
2023-01-29T14:13:01.133Z,110.34
2023-01-29T14:14:01.101Z,110.71
2023-01-29T14:15:01.093Z,113.10
2023-01-29T14:16:01.112Z,111.00
2023-01-29T14:17:02.011Z,112.95
2023-01-29T14:18:01.064Z,111.07
2023-01-29T14:19:02.018Z,110.78
2023-01-29T14:20:01.032Z,111.00
2023-01-29T14:21:01.048Z,113.40
2023-01-29T14:22:01.982Z,112.04
2023-01-29T14:23:01.001Z,113.10
2023-01-29T14:24:00.970Z,113.79
2023-01-29T14:25:01.946Z,112.34
2023-01-29T14:26:01.050Z,111.89
2023-01-29T14:27:01.887Z,113.87
2023-01-29T14:28:00.940Z,113.40
2023-01-29T14:29:00.925Z,113.40
2023-01-29T14:30:00.974Z,113.25
2023-01-29T14:31:01.027Z,114.10
2023-01-29T14:32:01.810Z,114.18
2023-01-29T14:33:01.838Z,115.04
2023-01-29T14:34:00.862Z,114.96
2023-01-29T14:35:00.894Z,115.20
2023-01-29T14:36:00.830Z,115.92
2023-01-29T14:37:00.851Z,115.36
2023-01-29T14:38:02.648Z,115.92
2023-01-29T14:39:00.825Z,116.64
2023-01-29T14:40:00.796Z,116.00
2023-01-29T14:41:01.759Z,117.13
2023-01-29T14:42:00.777Z,116.48
2023-01-29T14:43:01.681Z,116.81
2023-01-29T14:44:00.751Z,116.89
2023-01-29T14:45:00.756Z,117.79
2023-01-29T14:46:00.747Z,117.54
2023-01-29T14:47:00.687Z,117.71
2023-01-29T14:48:01.617Z,117.87
2023-01-29T14:49:01.614Z,118.04
2023-01-29T14:50:00.681Z,118.21
2023-01-29T14:51:00.647Z,118.71
2023-01-29T14:52:00.666Z,118.88
2023-01-29T14:53:00.605Z,118.04
2023-01-29T14:54:01.471Z,119.64
2023-01-29T14:55:01.520Z,118.88
2023-01-29T14:56:00.597Z,118.54
2023-01-29T14:57:00.685Z,118.79
2023-01-29T14:58:00.581Z,119.81
2023-01-29T14:59:01.509Z,119.73
2023-01-29T15:00:00.592Z,119.81
2023-01-29T15:01:01.483Z,119.73
2023-01-29T15:02:00.558Z,119.99
2023-01-29T15:03:02.438Z,119.22
2023-01-29T15:04:01.450Z,119.13
2023-01-29T15:05:00.485Z,119.81
2023-01-29T15:06:00.489Z,120.24
2023-01-29T15:07:01.429Z,120.59
2023-01-29T15:08:01.376Z,120.42
2023-01-29T15:09:00.419Z,119.73
2023-01-29T15:10:19.128Z,119.99
2023-01-29T15:11:02.857Z,121.38
2023-01-29T15:12:00.418Z,121.11
2023-01-29T15:13:01.321Z,120.59
2023-01-29T15:14:01.313Z,121.46
2023-01-29T15:15:00.336Z,121.03
2023-01-29T15:16:00.385Z,120.50
2023-01-29T15:17:00.353Z,121.20
2023-01-29T15:18:00.305Z,121.20
2023-01-29T15:19:01.228Z,121.38
2023-01-29T15:20:01.244Z,122.00
2023-01-29T15:21:00.273Z,121.55
2023-01-29T15:22:00.265Z,121.46
2023-01-29T15:23:00.245Z,121.64
2023-01-29T15:24:00.240Z,121.55
2023-01-29T15:25:01.148Z,121.46
2023-01-29T15:26:00.206Z,121.38
2023-01-29T15:27:00.183Z,121.82
2023-01-29T15:28:00.183Z,120.94
2023-01-29T15:29:04.255Z,122.26
2023-01-29T15:30:00.248Z,121.64
2023-01-29T15:31:01.118Z,121.73
2023-01-29T15:32:00.176Z,122.17
2023-01-29T15:33:00.118Z,121.82
2023-01-29T15:34:00.116Z,121.46
2023-01-29T15:35:00.102Z,122.62
2023-01-29T15:36:08.793Z,122.00
2023-01-29T15:37:01.617Z,122.44
2023-01-29T15:38:01.049Z,122.53
2023-01-29T15:39:00.037Z,122.71
2023-01-29T15:40:00.118Z,123.07
2023-01-29T15:41:00.031Z,123.25
2023-01-29T15:42:00.937Z,123.16
2023-01-29T15:42:59.997Z,122.98
2023-01-29T15:44:00.009Z,123.34
2023-01-29T15:45:00.005Z,123.71
2023-01-29T15:45:59.956Z,123.62
2023-01-29T15:47:00.916Z,123.62
2023-01-29T15:47:59.936Z,123.71
2023-01-29T15:48:59.957Z,123.98
2023-01-29T15:50:00.909Z,123.07
2023-01-29T15:50:59.900Z,123.89
2023-01-29T15:52:00.852Z,124.07
2023-01-29T15:53:00.830Z,123.53
2023-01-29T15:53:59.889Z,123.80
2023-01-29T15:54:59.863Z,123.98
2023-01-29T15:56:00.832Z,123.98
2023-01-29T15:56:59.908Z,123.98
2023-01-29T15:58:00.765Z,123.71
2023-01-29T15:58:59.805Z,123.98
2023-01-29T15:59:59.785Z,123.62
2023-01-29T16:00:59.785Z,124.35
2023-01-29T16:02:00.789Z,124.17
2023-01-29T16:02:59.770Z,124.54
2023-01-29T16:04:00.669Z,124.17
2023-01-29T16:04:59.734Z,124.72
2023-01-29T16:05:59.703Z,123.98
2023-01-29T16:06:59.696Z,124.35
2023-01-29T16:07:59.682Z,124.54
2023-01-29T16:09:00.522Z,124.91
2023-01-29T16:10:00.649Z,124.35
2023-01-29T16:11:00.603Z,124.72
2023-01-29T16:11:59.623Z,123.62
2023-01-29T16:12:59.628Z,124.35
2023-01-29T16:13:59.696Z,124.44
2023-01-29T16:15:00.536Z,124.07
2023-01-29T16:16:00.727Z,124.35
2023-01-29T16:16:59.625Z,124.54
2023-01-29T16:18:00.360Z,124.44
2023-01-29T16:19:01.251Z,124.54
2023-01-29T16:19:59.710Z,124.26
2023-01-29T16:21:00.532Z,125.28
2023-01-29T16:21:59.500Z,124.26
2023-01-29T16:22:59.518Z,124.35
2023-01-29T16:23:59.507Z,123.98
2023-01-29T16:24:59.475Z,124.26
2023-01-29T16:25:59.451Z,124.44
2023-01-29T16:27:00.379Z,124.35
2023-01-29T16:27:59.434Z,125.00
2023-01-29T16:28:59.401Z,124.91
2023-01-29T16:29:59.413Z,124.54
2023-01-29T16:31:01.845Z,124.91
2023-01-29T16:31:59.424Z,124.35
2023-01-29T16:33:00.333Z,124.44
2023-01-29T16:33:59.407Z,124.44
2023-01-29T16:34:59.325Z,124.44
2023-01-29T16:35:59.323Z,124.81
2023-01-29T16:36:59.316Z,124.26
2023-01-29T16:38:00.240Z,124.44
2023-01-29T16:39:00.234Z,124.63
2023-01-29T16:39:59.344Z,124.72
2023-01-29T16:40:59.264Z,124.35
2023-01-29T16:41:59.238Z,124.07
2023-01-29T16:42:59.234Z,124.35
2023-01-29T16:44:00.180Z,124.91
2023-01-29T16:45:00.159Z,124.35
2023-01-29T16:45:59.187Z,124.63
2023-01-29T16:46:59.178Z,125.00
2023-01-29T16:47:59.171Z,124.72
2023-01-29T16:49:00.118Z,124.91
2023-01-29T16:49:59.240Z,124.91
2023-01-29T16:51:00.107Z,125.37
2023-01-29T16:52:00.087Z,124.91
2023-01-29T16:52:59.097Z,124.72
2023-01-29T16:54:00.071Z,124.91
2023-01-29T16:54:59.090Z,125.00
2023-01-29T16:55:59.060Z,125.47
2023-01-29T16:56:59.050Z,124.91
2023-01-29T16:57:59.026Z,125.09
2023-01-29T16:58:59.984Z,124.63
2023-01-29T16:59:59.978Z,124.54
2023-01-29T17:00:59.016Z,124.91
2023-01-29T17:01:58.987Z,124.91
2023-01-29T17:02:59.837Z,125.09
2023-01-29T17:03:59.907Z,124.44
2023-01-29T17:04:58.973Z,124.72
2023-01-29T17:05:59.061Z,124.54
2023-01-29T17:06:58.954Z,124.72
2023-01-29T17:07:58.926Z,124.63
2023-01-29T17:08:58.898Z,124.72
2023-01-29T17:09:59.890Z,124.63
2023-01-29T17:10:58.883Z,124.54
2023-01-29T17:11:59.816Z,125.00
2023-01-29T17:12:58.883Z,124.54
2023-01-29T17:13:58.844Z,124.81
2023-01-29T17:14:59.785Z,124.44
2023-01-29T17:15:58.880Z,124.07
2023-01-29T17:16:58.811Z,124.54
2023-01-29T17:17:59.732Z,123.98
2023-01-29T17:18:59.660Z,123.98
2023-01-29T17:19:58.792Z,124.91
2023-01-29T17:20:59.686Z,123.43
2023-01-29T17:21:58.733Z,123.62
2023-01-29T17:23:00.387Z,124.26
2023-01-29T17:23:58.739Z,123.89
2023-01-29T17:24:58.705Z,124.07
2023-01-29T17:25:59.651Z,124.54
2023-01-29T17:26:58.700Z,123.62
2023-01-29T17:27:59.633Z,123.98
2023-01-29T17:28:58.641Z,123.89
2023-01-29T17:29:58.632Z,124.35
2023-01-29T17:31:06.233Z,123.80
2023-01-29T17:32:01.126Z,123.98
2023-01-29T17:32:58.604Z,123.98
2023-01-29T17:33:58.572Z,124.44
2023-01-29T17:35:00.490Z,123.53
2023-01-29T17:35:58.559Z,123.62
2023-01-29T17:36:59.559Z,123.16
2023-01-29T17:37:59.665Z,124.35
2023-01-29T17:38:58.581Z,123.53
2023-01-29T17:39:58.561Z,123.98
2023-01-29T17:40:58.512Z,123.62
2023-01-29T17:41:59.455Z,123.43
2023-01-29T17:42:59.399Z,123.16
2023-01-29T17:43:58.466Z,124.35
2023-01-29T17:44:58.461Z,123.62
2023-01-29T17:45:58.502Z,123.62
2023-01-29T17:46:58.473Z,123.53
2023-01-29T17:48:00.293Z,123.62
2023-01-29T17:48:58.411Z,123.98
2023-01-29T17:49:58.416Z,122.98
2023-01-29T17:50:59.225Z,124.17
2023-01-29T17:51:59.318Z,123.53
2023-01-29T17:52:59.287Z,123.98
2023-01-29T17:53:58.351Z,123.25
2023-01-29T17:54:59.319Z,123.53
2023-01-29T17:55:58.296Z,123.16
2023-01-29T17:56:58.293Z,123.89
2023-01-29T17:57:58.300Z,123.89
2023-01-29T17:58:59.224Z,123.43
2023-01-29T17:59:58.246Z,123.62
2023-01-29T18:00:58.262Z,123.62
2023-01-29T18:01:58.292Z,123.98
2023-01-29T18:02:58.224Z,124.07
2023-01-29T18:03:59.206Z,123.71
2023-01-29T18:04:58.203Z,124.54
2023-01-29T18:05:58.189Z,123.62
2023-01-29T18:06:58.191Z,124.72
2023-01-29T18:07:58.146Z,124.72
2023-01-29T18:08:58.134Z,124.17